sensor_id;sensor_type;location;lat;lon;timestamp;pressure;altitude;pressure_sealevel;temperature;humidity
7888;BME280;3989;48.810;9.208;2023-06-10T00:01:23;98385.78;;;16.92;100.00
7888;BME280;3989;48.810;9.208;2023-06-10T00:03:50;98317.38;;;16.45;100.00
7888;BME280;3989;48.810;9.208;2023-06-10T00:06:18;98368.59;;;16.75;100.00
7888;BME280;3989;48.810;9.208;2023-06-10T00:08:46;98366.28;;;16.78;100.00
7888;BME280;3989;48.810;9.208;2023-06-10T00:11:13;98384.69;;;16.82;100.00
7888;BME280;3989;48.810;9.208;2023-06-10T00:13:39;98360.69;;;16.62;100.00
7888;BME280;3989;48.810;9.208;2023-06-10T00:16:06;98393.09;;;16.73;100.00
7888;BME280;3989;48.810;9.208;2023-06-10T00:18:33;98384.19;;;16.73;100.00
7888;BME280;3989;48.810;9.208;2023-06-10T00:21:02;98385.44;;;16.70;100.00
7888;BME280;3989;48.810;9.208;2023-06-10T00:23:31;98319.78;;;16.35;100.00
7888;BME280;3989;48.810;9.208;2023-06-10T00:26:03;98379.56;;;16.62;100.00
7888;BME280;3989;48.810;9.208;2023-06-10T00:28:30;98385.81;;;16.74;100.00
7888;BME280;3989;48.810;9.208;2023-06-10T00:30:56;98368.47;;;16.70;100.00
7888;BME280;3989;48.810;9.208;2023-06-10T00:33:23;98301.91;;;16.22;100.00
7888;BME280;3989;48.810;9.208;2023-06-10T00:35:50;98359.53;;;16.51;100.00
7888;BME280;3989;48.810;9.208;2023-06-10T00:38:17;98378.34;;;16.58;100.00
7888;BME280;3989;48.810;9.208;2023-06-10T00:40:45;98387.56;;;16.68;100.00
7888;BME280;3989;48.810;9.208;2023-06-10T00:43:11;98392.72;;;16.70;100.00
7888;BME280;3989;48.810;9.208;2023-06-10T00:45:38;98390.25;;;16.68;100.00
7888;BME280;3989;48.810;9.208;2023-06-10T00:48:05;98356.72;;;16.46;100.00
7888;BME280;3989;48.810;9.208;2023-06-10T00:50:31;98385.75;;;16.62;100.00
7888;BME280;3989;48.810;9.208;2023-06-10T00:52:59;98375.06;;;16.56;100.00
7888;BME280;3989;48.810;9.208;2023-06-10T00:55:26;98372.97;;;16.58;100.00
7888;BME280;3989;48.810;9.208;2023-06-10T00:57:54;98384.47;;;16.65;100.00
7888;BME280;3989;48.810;9.208;2023-06-10T01:00:21;98297.06;;;16.13;100.00
7888;BME280;3989;48.810;9.208;2023-06-10T01:02:48;98301.03;;;16.10;100.00
7888;BME280;3989;48.810;9.208;2023-06-10T01:05:14;98370.88;;;16.60;100.00
7888;BME280;3989;48.810;9.208;2023-06-10T01:07:47;98356.22;;;16.56;100.00
7888;BME280;3989;48.810;9.208;2023-06-10T01:10:22;98378.72;;;16.61;100.00
7888;BME280;3989;48.810;9.208;2023-06-10T01:12:58;98373.09;;;16.45;100.00
7888;BME280;3989;48.810;9.208;2023-06-10T01:15:28;98383.44;;;16.48;100.00
7888;BME280;3989;48.810;9.208;2023-06-10T01:17:56;98378.47;;;16.45;100.00
7888;BME280;3989;48.810;9.208;2023-06-10T01:20:23;98377.53;;;16.39;100.00
7888;BME280;3989;48.810;9.208;2023-06-10T01:22:53;98385.47;;;16.34;100.00
7888;BME280;3989;48.810;9.208;2023-06-10T01:25:20;98351.91;;;16.18;100.00
7888;BME280;3989;48.810;9.208;2023-06-10T01:27:55;98377.84;;;16.31;100.00
7888;BME280;3989;48.810;9.208;2023-06-10T01:30:27;98359.91;;;16.25;100.00
7888;BME280;3989;48.810;9.208;2023-06-10T01:32:57;98368.47;;;16.34;100.00
7888;BME280;3989;48.810;9.208;2023-06-10T01:35:26;98379.25;;;16.34;100.00
7888;BME280;3989;48.810;9.208;2023-06-10T01:37:56;98372.75;;;16.23;100.00
7888;BME280;3989;48.810;9.208;2023-06-10T01:40:25;98366.84;;;16.14;100.00
7888;BME280;3989;48.810;9.208;2023-06-10T01:42:52;98283.16;;;15.61;100.00
7888;BME280;3989;48.810;9.208;2023-06-10T01:45:19;98375.38;;;16.11;100.00
7888;BME280;3989;48.810;9.208;2023-06-10T01:47:46;98377.31;;;16.04;100.00
7888;BME280;3989;48.810;9.208;2023-06-10T01:50:12;98321.06;;;15.60;100.00
7888;BME280;3989;48.810;9.208;2023-06-10T01:52:39;98352.00;;;15.69;100.00
7888;BME280;3989;48.810;9.208;2023-06-10T01:55:08;98320.66;;;15.56;100.00
7888;BME280;3989;48.810;9.208;2023-06-10T01:57:34;98366.59;;;15.80;100.00
7888;BME280;3989;48.810;9.208;2023-06-10T02:00:01;98378.38;;;15.79;100.00
7888;BME280;3989;48.810;9.208;2023-06-10T02:02:28;98294.59;;;15.32;100.00
7888;BME280;3989;48.810;9.208;2023-06-10T02:04:55;98385.81;;;15.83;100.00
7888;BME280;3989;48.810;9.208;2023-06-10T02:07:22;98386.06;;;15.75;100.00
7888;BME280;3989;48.810;9.208;2023-06-10T02:09:48;98386.28;;;15.73;100.00
7888;BME280;3989;48.810;9.208;2023-06-10T02:12:16;98378.13;;;15.62;100.00
7888;BME280;3989;48.810;9.208;2023-06-10T02:14:43;98321.97;;;15.22;100.00
7888;BME280;3989;48.810;9.208;2023-06-10T02:17:09;98366.91;;;15.40;100.00
7888;BME280;3989;48.810;9.208;2023-06-10T02:19:37;98413.41;;;15.47;100.00
7888;BME280;3989;48.810;9.208;2023-06-10T02:22:07;98399.63;;;15.37;100.00
7888;BME280;3989;48.810;9.208;2023-06-10T02:24:35;98403.63;;;15.28;100.00
7888;BME280;3989;48.810;9.208;2023-06-10T02:27:02;98380.38;;;15.09;100.00
7888;BME280;3989;48.810;9.208;2023-06-10T02:29:30;98391.06;;;15.15;100.00
7888;BME280;3989;48.810;9.208;2023-06-10T02:31:57;98362.06;;;14.93;100.00
7888;BME280;3989;48.810;9.208;2023-06-10T02:34:23;98372.19;;;14.97;100.00
7888;BME280;3989;48.810;9.208;2023-06-10T02:36:50;98372.78;;;14.99;100.00
7888;BME280;3989;48.810;9.208;2023-06-10T02:39:16;98414.22;;;15.16;100.00
7888;BME280;3989;48.810;9.208;2023-06-10T02:41:43;98396.13;;;15.05;100.00
7888;BME280;3989;48.810;9.208;2023-06-10T02:44:10;98320.06;;;14.67;100.00
7888;BME280;3989;48.810;9.208;2023-06-10T02:46:38;98397.84;;;15.24;100.00
7888;BME280;3989;48.810;9.208;2023-06-10T02:49:04;98403.38;;;15.30;100.00
7888;BME280;3989;48.810;9.208;2023-06-10T02:51:31;98421.13;;;15.37;100.00
7888;BME280;3989;48.810;9.208;2023-06-10T02:53:57;98401.63;;;15.17;100.00
7888;BME280;3989;48.810;9.208;2023-06-10T02:56:24;98396.88;;;15.12;100.00
7888;BME280;3989;48.810;9.208;2023-06-10T02:58:51;98418.56;;;15.17;100.00
7888;BME280;3989;48.810;9.208;2023-06-10T03:01:17;98379.69;;;14.89;100.00
7888;BME280;3989;48.810;9.208;2023-06-10T03:03:45;98415.72;;;15.06;100.00
7888;BME280;3989;48.810;9.208;2023-06-10T03:06:12;98421.16;;;14.99;100.00
7888;BME280;3989;48.810;9.208;2023-06-10T03:08:39;98366.22;;;14.51;100.00
7888;BME280;3989;48.810;9.208;2023-06-10T03:11:06;98405.34;;;14.78;100.00
7888;BME280;3989;48.810;9.208;2023-06-10T03:13:32;98413.22;;;14.80;100.00
7888;BME280;3989;48.810;9.208;2023-06-10T03:15:59;98423.94;;;14.86;100.00
7888;BME280;3989;48.810;9.208;2023-06-10T03:18:27;98398.19;;;14.65;100.00
7888;BME280;3989;48.810;9.208;2023-06-10T03:20:55;98311.84;;;14.17;100.00
7888;BME280;3989;48.810;9.208;2023-06-10T03:23:22;98429.19;;;14.99;100.00
7888;BME280;3989;48.810;9.208;2023-06-10T03:25:48;98408.44;;;14.82;100.00
7888;BME280;3989;48.810;9.208;2023-06-10T03:28:15;98416.50;;;14.82;100.00
7888;BME280;3989;48.810;9.208;2023-06-10T03:30:41;98438.31;;;14.98;100.00
7888;BME280;3989;48.810;9.208;2023-06-10T03:33:08;98433.81;;;14.92;100.00
7888;BME280;3989;48.810;9.208;2023-06-10T03:35:34;98390.38;;;14.57;100.00
7888;BME280;3989;48.810;9.208;2023-06-10T03:38:02;98393.69;;;14.59;100.00
7888;BME280;3989;48.810;9.208;2023-06-10T03:40:29;98349.16;;;14.32;100.00
7888;BME280;3989;48.810;9.208;2023-06-10T03:42:57;98397.59;;;14.63;100.00
7888;BME280;3989;48.810;9.208;2023-06-10T03:45:23;98449.47;;;15.02;100.00
7888;BME280;3989;48.810;9.208;2023-06-10T03:47:50;98421.66;;;14.83;100.00
7888;BME280;3989;48.810;9.208;2023-06-10T03:50:17;98454.78;;;15.15;100.00
7888;BME280;3989;48.810;9.208;2023-06-10T03:52:44;98434.78;;;15.04;100.00
7888;BME280;3989;48.810;9.208;2023-06-10T03:55:12;98429.00;;;15.01;100.00
7888;BME280;3989;48.810;9.208;2023-06-10T03:57:39;98459.72;;;15.18;100.00
7888;BME280;3989;48.810;9.208;2023-06-10T04:00:06;98353.44;;;14.53;100.00
7888;BME280;3989;48.810;9.208;2023-06-10T04:02:36;98463.41;;;15.23;100.00
7888;BME280;3989;48.810;9.208;2023-06-10T04:05:03;98472.41;;;15.36;100.00
7888;BME280;3989;48.810;9.208;2023-06-10T04:07:30;98465.22;;;15.61;100.00
7888;BME280;3989;48.810;9.208;2023-06-10T04:09:57;98449.81;;;15.74;100.00
7888;BME280;3989;48.810;9.208;2023-06-10T04:12:25;98459.66;;;16.12;100.00
7888;BME280;3989;48.810;9.208;2023-06-10T04:14:52;98385.50;;;15.91;100.00
7888;BME280;3989;48.810;9.208;2023-06-10T04:17:18;98453.03;;;16.51;100.00
7888;BME280;3989;48.810;9.208;2023-06-10T04:19:45;98457.31;;;16.58;100.00
7888;BME280;3989;48.810;9.208;2023-06-10T04:22:11;98433.56;;;16.49;100.00
7888;BME280;3989;48.810;9.208;2023-06-10T04:24:52;98464.47;;;16.64;100.00
7888;BME280;3989;48.810;9.208;2023-06-10T04:27:19;98444.66;;;16.59;100.00
7888;BME280;3989;48.810;9.208;2023-06-10T04:29:47;98450.09;;;16.70;100.00
7888;BME280;3989;48.810;9.208;2023-06-10T04:32:13;98468.97;;;16.89;100.00
7888;BME280;3989;48.810;9.208;2023-06-10T04:34:40;98466.56;;;16.99;100.00
7888;BME280;3989;48.810;9.208;2023-06-10T04:37:07;98441.78;;;16.90;100.00
7888;BME280;3989;48.810;9.208;2023-06-10T04:39:34;98472.59;;;17.12;100.00
7888;BME280;3989;48.810;9.208;2023-06-10T04:42:01;98464.88;;;17.16;100.00
7888;BME280;3989;48.810;9.208;2023-06-10T04:44:27;98476.06;;;17.31;100.00
7888;BME280;3989;48.810;9.208;2023-06-10T04:46:57;98431.81;;;17.09;100.00
7888;BME280;3989;48.810;9.208;2023-06-10T04:49:23;98439.34;;;17.18;100.00
7888;BME280;3989;48.810;9.208;2023-06-10T04:51:50;98466.81;;;17.57;100.00
7888;BME280;3989;48.810;9.208;2023-06-10T04:54:16;98453.31;;;17.57;100.00
7888;BME280;3989;48.810;9.208;2023-06-10T04:56:43;98458.88;;;17.73;100.00
7888;BME280;3989;48.810;9.208;2023-06-10T04:59:09;98483.78;;;17.99;100.00
7888;BME280;3989;48.810;9.208;2023-06-10T05:01:36;98467.13;;;18.02;100.00
7888;BME280;3989;48.810;9.208;2023-06-10T05:04:04;98427.78;;;17.82;100.00
7888;BME280;3989;48.810;9.208;2023-06-10T05:06:31;98422.00;;;17.91;100.00
7888;BME280;3989;48.810;9.208;2023-06-10T05:08:58;98400.44;;;17.79;100.00
7888;BME280;3989;48.810;9.208;2023-06-10T05:11:24;98459.72;;;18.20;100.00
7888;BME280;3989;48.810;9.208;2023-06-10T05:13:51;98453.72;;;18.30;100.00
7888;BME280;3989;48.810;9.208;2023-06-10T05:16:18;98468.38;;;18.46;100.00
7888;BME280;3989;48.810;9.208;2023-06-10T05:18:44;98450.78;;;18.43;100.00
7888;BME280;3989;48.810;9.208;2023-06-10T05:21:15;98410.97;;;18.27;100.00
7888;BME280;3989;48.810;9.208;2023-06-10T05:23:41;98430.47;;;18.52;100.00
7888;BME280;3989;48.810;9.208;2023-06-10T05:26:08;98451.22;;;18.75;100.00
7888;BME280;3989;48.810;9.208;2023-06-10T05:28:36;98499.69;;;19.05;100.00
7888;BME280;3989;48.810;9.208;2023-06-10T05:31:03;98466.69;;;18.91;100.00
7888;BME280;3989;48.810;9.208;2023-06-10T05:33:29;98481.81;;;19.04;100.00
7888;BME280;3989;48.810;9.208;2023-06-10T05:35:56;98474.53;;;19.04;100.00
7888;BME280;3989;48.810;9.208;2023-06-10T05:38:24;98491.72;;;19.26;100.00
7888;BME280;3989;48.810;9.208;2023-06-10T05:40:51;98436.44;;;19.06;100.00
7888;BME280;3989;48.810;9.208;2023-06-10T05:43:17;98497.56;;;19.47;100.00
7888;BME280;3989;48.810;9.208;2023-06-10T05:45:44;98486.34;;;19.55;100.00
7888;BME280;3989;48.810;9.208;2023-06-10T05:48:11;98492.59;;;19.72;100.00
7888;BME280;3989;48.810;9.208;2023-06-10T05:50:37;98504.84;;;19.91;98.92
7888;BME280;3989;48.810;9.208;2023-06-10T05:53:05;98501.56;;;20.06;97.82
7888;BME280;3989;48.810;9.208;2023-06-10T05:55:34;98491.97;;;20.15;96.63
7888;BME280;3989;48.810;9.208;2023-06-10T05:58:01;98501.28;;;20.35;92.06
7888;BME280;3989;48.810;9.208;2023-06-10T06:00:28;98465.38;;;20.28;92.23
7888;BME280;3989;48.810;9.208;2023-06-10T06:02:55;98505.72;;;20.63;90.44
7888;BME280;3989;48.810;9.208;2023-06-10T06:05:52;98500.44;;;20.73;89.39
7888;BME280;3989;48.810;9.208;2023-06-10T06:08:21;98457.94;;;20.57;87.80
7888;BME280;3989;48.810;9.208;2023-06-10T06:10:50;98456.59;;;20.60;87.48
7888;BME280;3989;48.810;9.208;2023-06-10T06:13:16;98504.88;;;21.01;87.26
7888;BME280;3989;48.810;9.208;2023-06-10T06:15:43;98498.59;;;21.17;85.21
7888;BME280;3989;48.810;9.208;2023-06-10T06:18:10;98433.91;;;20.87;84.92
7888;BME280;3989;48.810;9.208;2023-06-10T06:20:40;98423.63;;;20.89;82.30
7888;BME280;3989;48.810;9.208;2023-06-10T06:23:08;98479.47;;;21.29;82.38
7888;BME280;3989;48.810;9.208;2023-06-10T06:25:36;98497.94;;;21.59;81.89
7888;BME280;3989;48.810;9.208;2023-06-10T06:28:06;98482.25;;;21.61;80.13
7888;BME280;3989;48.810;9.208;2023-06-10T06:30:37;98439.72;;;21.44;77.69
7888;BME280;3989;48.810;9.208;2023-06-10T06:33:16;98502.47;;;22.02;76.77
7888;BME280;3989;48.810;9.208;2023-06-10T06:35:42;98479.28;;;21.94;76.36
7888;BME280;3989;48.810;9.208;2023-06-10T06:38:09;98485.09;;;22.03;73.97
7888;BME280;3989;48.810;9.208;2023-06-10T06:40:39;98504.06;;;22.29;73.34
7888;BME280;3989;48.810;9.208;2023-06-10T06:43:07;98460.94;;;22.06;72.02
7888;BME280;3989;48.810;9.208;2023-06-10T06:45:50;98461.47;;;22.08;70.14
7888;BME280;3989;48.810;9.208;2023-06-10T06:53:43;98509.84;;;22.43;70.42
7888;BME280;3989;48.810;9.208;2023-06-10T06:56:11;98482.34;;;22.34;69.72
7888;BME280;3989;48.810;9.208;2023-06-10T06:58:39;98442.53;;;22.18;70.17
7888;BME280;3989;48.810;9.208;2023-06-10T07:01:09;98427.94;;;22.29;69.82
7888;BME280;3989;48.810;9.208;2023-06-10T07:03:41;98498.72;;;22.86;67.48
7888;BME280;3989;48.810;9.208;2023-06-10T07:06:07;98511.31;;;23.08;67.37
7888;BME280;3989;48.810;9.208;2023-06-10T07:08:34;98469.09;;;22.90;65.07
7888;BME280;3989;48.810;9.208;2023-06-10T07:11:01;98493.66;;;23.10;65.82
7888;BME280;3989;48.810;9.208;2023-06-10T07:13:28;98499.19;;;23.35;65.57
7888;BME280;3989;48.810;9.208;2023-06-10T07:15:58;98443.03;;;23.09;63.99
7888;BME280;3989;48.810;9.208;2023-06-10T07:18:27;98443.31;;;23.13;64.05
7888;BME280;3989;48.810;9.208;2023-06-10T07:20:58;98452.84;;;23.20;62.16
7888;BME280;3989;48.810;9.208;2023-06-10T07:23:24;98524.94;;;23.75;60.69
7888;BME280;3989;48.810;9.208;2023-06-10T07:25:51;98497.91;;;23.48;60.35
7888;BME280;3989;48.810;9.208;2023-06-10T07:28:18;98483.41;;;23.32;59.92
7888;BME280;3989;48.810;9.208;2023-06-10T07:30:44;98492.97;;;23.40;62.03
7888;BME280;3989;48.810;9.208;2023-06-10T07:33:12;98490.25;;;23.50;60.64
7888;BME280;3989;48.810;9.208;2023-06-10T07:35:39;98518.38;;;23.76;59.50
7888;BME280;3989;48.810;9.208;2023-06-10T07:38:08;98518.66;;;23.89;59.31
7888;BME280;3989;48.810;9.208;2023-06-10T07:40:34;98485.41;;;23.82;58.53
7888;BME280;3989;48.810;9.208;2023-06-10T07:43:01;98512.13;;;24.05;59.18
7888;BME280;3989;48.810;9.208;2023-06-10T07:45:28;98486.50;;;24.01;57.61
7888;BME280;3989;48.810;9.208;2023-06-10T07:47:54;98466.31;;;23.97;55.80
7888;BME280;3989;48.810;9.208;2023-06-10T07:50:23;98517.34;;;24.32;55.67
7888;BME280;3989;48.810;9.208;2023-06-10T07:52:49;98511.34;;;24.35;56.81
7888;BME280;3989;48.810;9.208;2023-06-10T07:55:16;98506.44;;;24.42;56.22
7888;BME280;3989;48.810;9.208;2023-06-10T07:57:42;98510.50;;;24.50;55.54
7888;BME280;3989;48.810;9.208;2023-06-10T08:00:10;98512.41;;;24.65;54.91
7888;BME280;3989;48.810;9.208;2023-06-10T08:02:37;98503.91;;;24.66;54.96
7888;BME280;3989;48.810;9.208;2023-06-10T08:05:04;98511.28;;;24.76;54.76
7888;BME280;3989;48.810;9.208;2023-06-10T08:07:36;98482.91;;;24.72;54.49
7888;BME280;3989;48.810;9.208;2023-06-10T08:10:03;98485.38;;;24.83;54.20
7888;BME280;3989;48.810;9.208;2023-06-10T08:12:30;98473.59;;;24.93;53.72
7888;BME280;3989;48.810;9.208;2023-06-10T08:14:57;98448.81;;;24.64;54.20
7888;BME280;3989;48.810;9.208;2023-06-10T08:17:23;98454.84;;;24.51;55.65
7888;BME280;3989;48.810;9.208;2023-06-10T08:19:50;98510.75;;;24.64;56.29
7888;BME280;3989;48.810;9.208;2023-06-10T08:22:17;98487.03;;;24.64;57.21
7888;BME280;3989;48.810;9.208;2023-06-10T08:24:45;98484.81;;;24.81;55.05
7888;BME280;3989;48.810;9.208;2023-06-10T08:27:11;98486.41;;;24.97;55.02
7888;BME280;3989;48.810;9.208;2023-06-10T08:29:39;98498.34;;;25.12;53.96
7888;BME280;3989;48.810;9.208;2023-06-10T08:32:06;98496.97;;;25.14;53.41
7888;BME280;3989;48.810;9.208;2023-06-10T08:34:33;98478.19;;;25.02;53.55
7888;BME280;3989;48.810;9.208;2023-06-10T08:37:00;98487.69;;;25.20;53.58
7888;BME280;3989;48.810;9.208;2023-06-10T08:39:27;98496.16;;;25.19;52.51
7888;BME280;3989;48.810;9.208;2023-06-10T08:42:03;98501.38;;;25.10;51.85
7888;BME280;3989;48.810;9.208;2023-06-10T08:44:31;98492.06;;;25.16;52.26
7888;BME280;3989;48.810;9.208;2023-06-10T08:46:59;98494.19;;;25.29;51.76
7888;BME280;3989;48.810;9.208;2023-06-10T08:49:27;98499.03;;;25.42;51.92
7888;BME280;3989;48.810;9.208;2023-06-10T08:51:58;98503.94;;;25.45;51.14
7888;BME280;3989;48.810;9.208;2023-06-10T08:54:30;98494.50;;;25.23;50.97
7888;BME280;3989;48.810;9.208;2023-06-10T08:57:00;98490.84;;;25.42;50.68
7888;BME280;3989;48.810;9.208;2023-06-10T08:59:29;98485.78;;;25.70;50.65
7888;BME280;3989;48.810;9.208;2023-06-10T09:01:56;98482.06;;;25.94;49.96
7888;BME280;3989;48.810;9.208;2023-06-10T09:04:24;98477.50;;;26.19;48.96
7888;BME280;3989;48.810;9.208;2023-06-10T09:06:52;98484.78;;;26.28;47.66
7888;BME280;3989;48.810;9.208;2023-06-10T09:09:19;98465.72;;;26.23;47.90
7888;BME280;3989;48.810;9.208;2023-06-10T09:11:46;98482.47;;;26.45;47.82
7888;BME280;3989;48.810;9.208;2023-06-10T09:14:14;98476.06;;;26.55;47.04
7888;BME280;3989;48.810;9.208;2023-06-10T09:16:42;98480.84;;;26.68;46.65
7888;BME280;3989;48.810;9.208;2023-06-10T09:19:08;98475.53;;;26.77;45.54
7888;BME280;3989;48.810;9.208;2023-06-10T09:21:35;98473.72;;;26.67;45.79
7888;BME280;3989;48.810;9.208;2023-06-10T09:24:02;98480.31;;;26.66;46.31
7888;BME280;3989;48.810;9.208;2023-06-10T09:26:29;98465.44;;;26.72;46.73
7888;BME280;3989;48.810;9.208;2023-06-10T09:29:02;98467.72;;;26.94;45.86
7888;BME280;3989;48.810;9.208;2023-06-10T09:31:32;98470.88;;;27.25;45.36
7888;BME280;3989;48.810;9.208;2023-06-10T09:34:08;98468.13;;;27.48;44.88
7888;BME280;3989;48.810;9.208;2023-06-10T09:36:35;98465.13;;;27.82;44.52
7888;BME280;3989;48.810;9.208;2023-06-10T09:39:02;98479.72;;;27.96;43.53
7888;BME280;3989;48.810;9.208;2023-06-10T09:41:33;98481.66;;;27.77;43.80
7888;BME280;3989;48.810;9.208;2023-06-10T09:44:00;98475.00;;;27.46;44.01
7888;BME280;3989;48.810;9.208;2023-06-10T09:46:31;98439.97;;;27.00;44.74
7888;BME280;3989;48.810;9.208;2023-06-10T09:48:59;98465.38;;;26.82;45.11
7888;BME280;3989;48.810;9.208;2023-06-10T09:51:26;98430.13;;;26.52;45.54
7888;BME280;3989;48.810;9.208;2023-06-10T09:53:53;98473.00;;;27.09;45.47
7888;BME280;3989;48.810;9.208;2023-06-10T09:56:20;98466.53;;;27.24;45.09
7888;BME280;3989;48.810;9.208;2023-06-10T09:58:53;98460.69;;;27.30;44.84
7888;BME280;3989;48.810;9.208;2023-06-10T10:01:19;98464.16;;;27.36;44.84
7888;BME280;3989;48.810;9.208;2023-06-10T10:03:49;98450.09;;;27.24;44.76
7888;BME280;3989;48.810;9.208;2023-06-10T10:06:17;98469.31;;;27.19;44.65
7888;BME280;3989;48.810;9.208;2023-06-10T10:08:45;98465.09;;;27.07;43.77
7888;BME280;3989;48.810;9.208;2023-06-10T10:11:11;98459.88;;;27.06;44.82
7888;BME280;3989;48.810;9.208;2023-06-10T10:13:38;98463.66;;;26.91;43.82
7888;BME280;3989;48.810;9.208;2023-06-10T10:16:10;98423.13;;;26.88;43.95
7888;BME280;3989;48.810;9.208;2023-06-10T10:18:39;98442.53;;;27.53;43.13
7888;BME280;3989;48.810;9.208;2023-06-10T10:21:12;98455.59;;;27.61;42.77
7888;BME280;3989;48.810;9.208;2023-06-10T10:23:44;98441.97;;;27.75;42.68
7888;BME280;3989;48.810;9.208;2023-06-10T10:26:14;98455.19;;;27.86;42.73
7888;BME280;3989;48.810;9.208;2023-06-10T10:28:45;98449.16;;;27.52;43.57
7888;BME280;3989;48.810;9.208;2023-06-10T10:31:18;98448.31;;;27.14;44.10
7888;BME280;3989;48.810;9.208;2023-06-10T10:33:52;98444.34;;;26.78;44.73
7888;BME280;3989;48.810;9.208;2023-06-10T10:36:23;98452.06;;;26.47;45.15
7888;BME280;3989;48.810;9.208;2023-06-10T10:38:49;98435.13;;;26.16;45.57
7888;BME280;3989;48.810;9.208;2023-06-10T10:41:17;98435.38;;;26.43;45.60
7888;BME280;3989;48.810;9.208;2023-06-10T10:43:46;98450.63;;;27.02;43.93
7888;BME280;3989;48.810;9.208;2023-06-10T10:46:15;98444.88;;;27.03;43.53
7888;BME280;3989;48.810;9.208;2023-06-10T10:48:43;98437.41;;;26.85;43.96
7888;BME280;3989;48.810;9.208;2023-06-10T10:51:10;98449.25;;;26.76;44.19
7888;BME280;3989;48.810;9.208;2023-06-10T10:53:38;98446.00;;;26.74;44.46
7888;BME280;3989;48.810;9.208;2023-06-10T10:56:06;98445.28;;;26.92;44.50
7888;BME280;3989;48.810;9.208;2023-06-10T10:58:34;98437.25;;;27.38;44.14
7888;BME280;3989;48.810;9.208;2023-06-10T11:01:10;98440.53;;;27.77;42.77
7888;BME280;3989;48.810;9.208;2023-06-10T11:03:42;98442.03;;;28.02;41.49
7888;BME280;3989;48.810;9.208;2023-06-10T11:06:12;98420.88;;;28.21;41.82
7888;BME280;3989;48.810;9.208;2023-06-10T11:08:47;98394.78;;;28.37;40.96
7888;BME280;3989;48.810;9.208;2023-06-10T11:11:20;98428.88;;;28.63;40.97
7888;BME280;3989;48.810;9.208;2023-06-10T11:14:06;98434.28;;;28.96;40.17
7888;BME280;3989;48.810;9.208;2023-06-10T11:16:39;98436.31;;;29.17;39.15
7888;BME280;3989;48.810;9.208;2023-06-10T11:19:06;98422.28;;;29.55;39.25
7888;BME280;3989;48.810;9.208;2023-06-10T11:21:45;98413.44;;;29.80;38.13
7888;BME280;3989;48.810;9.208;2023-06-10T11:24:25;98413.06;;;30.17;38.13
7888;BME280;3989;48.810;9.208;2023-06-10T11:26:52;98425.97;;;30.39;37.68
7888;BME280;3989;48.810;9.208;2023-06-10T11:29:19;98412.22;;;30.39;37.62
7888;BME280;3989;48.810;9.208;2023-06-10T11:31:49;98415.75;;;30.09;37.09
7888;BME280;3989;48.810;9.208;2023-06-10T11:34:22;98423.41;;;29.54;38.07
7888;BME280;3989;48.810;9.208;2023-06-10T11:36:51;98429.66;;;29.46;38.43
7888;BME280;3989;48.810;9.208;2023-06-10T11:39:19;98420.63;;;29.32;38.10
7888;BME280;3989;48.810;9.208;2023-06-10T11:41:50;98396.25;;;28.89;38.78
7888;BME280;3989;48.810;9.208;2023-06-10T11:44:17;98412.03;;;28.84;39.83
7888;BME280;3989;48.810;9.208;2023-06-10T11:46:44;98409.19;;;28.75;40.02
7888;BME280;3989;48.810;9.208;2023-06-10T11:49:37;98363.91;;;28.45;40.03
7888;BME280;3989;48.810;9.208;2023-06-10T11:52:10;98382.31;;;28.58;39.64
7888;BME280;3989;48.810;9.208;2023-06-10T11:57:06;98366.75;;;28.40;39.22
7888;BME280;3989;48.810;9.208;2023-06-10T12:08:36;98421.38;;;29.82;38.14
7888;BME280;3989;48.810;9.208;2023-06-10T12:15:39;98404.13;;;30.73;36.59
7888;BME280;3989;48.810;9.208;2023-06-10T12:21:27;98360.38;;;30.81;34.93
7888;BME280;3989;48.810;9.208;2023-06-10T12:24:14;98339.44;;;30.62;35.20
7888;BME280;3989;48.810;9.208;2023-06-10T12:26:58;98357.47;;;30.77;34.84
7888;BME280;3989;48.810;9.208;2023-06-10T12:29:24;98394.75;;;30.83;34.90
7888;BME280;3989;48.810;9.208;2023-06-10T12:31:57;98398.94;;;30.81;35.08
7888;BME280;3989;48.810;9.208;2023-06-10T12:34:44;98352.06;;;30.55;35.22
7888;BME280;3989;48.810;9.208;2023-06-10T12:37:30;98398.13;;;30.71;35.22
7888;BME280;3989;48.810;9.208;2023-06-10T12:40:14;98401.06;;;30.75;34.94
7888;BME280;3989;48.810;9.208;2023-06-10T12:42:44;98357.53;;;30.46;35.07
7888;BME280;3989;48.810;9.208;2023-06-10T12:45:15;98349.50;;;30.67;34.91
7888;BME280;3989;48.810;9.208;2023-06-10T12:48:24;98395.69;;;31.35;34.01
7888;BME280;3989;48.810;9.208;2023-06-10T12:51:10;98380.44;;;31.46;34.08
7888;BME280;3989;48.810;9.208;2023-06-10T12:53:45;98369.38;;;31.12;34.21
7888;BME280;3989;48.810;9.208;2023-06-10T12:56:24;98390.44;;;30.51;34.73
7888;BME280;3989;48.810;9.208;2023-06-10T12:58:51;98393.88;;;29.82;35.64
7888;BME280;3989;48.810;9.208;2023-06-10T13:01:20;98345.81;;;29.21;36.55
7888;BME280;3989;48.810;9.208;2023-06-10T13:03:52;98366.09;;;29.25;37.04
7888;BME280;3989;48.810;9.208;2023-06-10T13:06:43;98341.63;;;29.01;36.90
7888;BME280;3989;48.810;9.208;2023-06-10T13:12:36;98350.44;;;28.98;37.07
7888;BME280;3989;48.810;9.208;2023-06-10T13:15:04;98357.13;;;29.55;36.71
7888;BME280;3989;48.810;9.208;2023-06-10T13:17:31;98365.19;;;29.96;35.95
7888;BME280;3989;48.810;9.208;2023-06-10T13:20:02;98363.94;;;30.33;35.08
7888;BME280;3989;48.810;9.208;2023-06-10T13:22:31;98345.59;;;30.59;34.55
7888;BME280;3989;48.810;9.208;2023-06-10T13:25:00;98368.59;;;31.20;34.02
7888;BME280;3989;48.810;9.208;2023-06-10T13:27:34;98370.22;;;31.38;33.12
7888;BME280;3989;48.810;9.208;2023-06-10T13:30:07;98323.81;;;31.32;33.71
7888;BME280;3989;48.810;9.208;2023-06-10T13:32:35;98318.81;;;31.51;32.58
7888;BME280;3989;48.810;9.208;2023-06-10T13:35:02;98369.28;;;31.51;33.17
7888;BME280;3989;48.810;9.208;2023-06-10T13:37:31;98369.66;;;30.93;33.80
7888;BME280;3989;48.810;9.208;2023-06-10T13:39:58;98327.00;;;29.95;34.03
7888;BME280;3989;48.810;9.208;2023-06-10T13:42:25;98357.00;;;29.83;35.15
7888;BME280;3989;48.810;9.208;2023-06-10T13:44:54;98361.50;;;29.56;35.63
7888;BME280;3989;48.810;9.208;2023-06-10T13:47:21;98357.59;;;29.35;36.11
7888;BME280;3989;48.810;9.208;2023-06-10T13:49:48;98359.78;;;29.25;36.39
7888;BME280;3989;48.810;9.208;2023-06-10T13:52:15;98357.84;;;29.25;36.28
7888;BME280;3989;48.810;9.208;2023-06-10T13:54:44;98363.16;;;29.44;35.89